This is the latest recevied weather packets stored in our database for station/object LRSB. If no packets are shown the sender has not sent any weather packets the latest 1 day(s).
| Time | Temp. | Humidity | Pressure | Rain* | Wind** | Luminosity | Snow |
|---|---|---|---|---|---|---|---|
| 1778100492 | 13.89° C | 59% | 1013 hPa | - | - | - | - |
| 1778097791 | 16.11° C | 52% | 1013 hPa | - | - | - | - |
| 1778096015 | 17.22° C | 45% | 1013 hPa | - | - | - | - |
| 1778095092 | 17.78° C | 43% | 1013 hPa | - | - | - | - |
| 1778082492 | 26.11° C | 28% | 1011 hPa | - | - | - | - |
| 1778080691 | 26.11° C | 28% | 1011 hPa | - | - | - | - |
| 1778079797 | 26.11° C | 28% | 1011 hPa | - | - | - | - |
| 1778078003 | 25° C | 28% | 1011 hPa | - | - | - | - |
| 1778073491 | 27.22° C | 23% | 1011 hPa | - | - | - | - |
| 1778072600 | 27.22° C | 23% | 1011 hPa | - | - | - | - |
| 1778068091 | 26.11° C | 23% | 1012 hPa | - | - | - | - |
| 1778066291 | 26.11° C | 28% | 1013 hPa | - | - | - | - |
| 1778065391 | 26.11° C | 28% | 1013 hPa | - | - | - | - |
| 1778064492 | 25° C | 28% | 1013 hPa | - | - | - | - |
| 1778059991 | 25° C | 30% | 1014 hPa | - | - | - | - |
| 1778056391 | 22.78° C | 31% | 1014 hPa | - | - | - | - |
| 1778051891 | 18.89° C | 46% | 1014 hPa | - | - | - | - |
| 1778050991 | 18.89° C | 46% | 1014 hPa | - | - | - | - |
| 1778049191 | 17.78° C | 49% | 1014 hPa | - | - | - | - |
| 1778047393 | 17.78° C | 49% | 1014 hPa | - | - | - | - |
| 1778046492 | 15° C | 59% | 1015 hPa | - | - | - | - |
| 1778043805 | 11.11° C | 77% | 1014 hPa | - | - | - | - |
| 1778042907 | 12.22° C | 67% | 1014 hPa | - | - | - | - |
| 1778041995 | 12.22° C | 67% | 1014 hPa | - | - | - | - |
| 1778041092 | 10° C | 76% | 1014 hPa | - | - | - | - |
* Rain since midnight (hover to see other rain measurements)
** Current wind speed in m/s (hover to see current wind gust speed)